Time,TemperatureF,DewpointF,PressureIn,WindDirection,WindDirectionDegrees,WindSpeedMPH,WindSpeedGustMPH,Humidity,HourlyPrecipIn,Conditions,Clouds,dailyrainin,SolarRadiationWatts/m^2,SoftwareType,DateUTC
2013-02-25 00:01:00,30.0,22.0,-100.00,WSW,257,8.0,13.0,73,0.00,,,0.00,0.000000,,2013-02-25 05:01:00,
2013-02-25 00:11:00,30.0,22.0,-100.00,WSW,257,8.0,13.0,73,0.00,,,0.00,0.000000,,2013-02-25 05:11:00,
2013-02-25 00:22:00,30.0,22.0,-100.00,WSW,257,8.0,13.0,73,0.00,,,0.00,0.000000,,2013-02-25 05:22:00,
2013-02-25 00:52:00,30.0,22.0,-100.00,West,259,7.0,11.0,73,0.00,,,0.00,0.000000,,2013-02-25 05:52:00,
2013-02-25 01:03:00,30.0,22.0,-100.00,West,259,7.0,11.0,73,0.00,,,0.00,0.000000,,2013-02-25 06:03:00,
2013-02-25 01:12:00,30.0,22.0,-100.00,West,259,7.0,11.0,73,0.00,,,0.00,0.000000,,2013-02-25 06:12:00,
2013-02-25 01:21:00,30.0,22.0,-100.00,West,259,7.0,11.0,73,0.00,,,0.00,0.000000,,2013-02-25 06:21:00,
2013-02-25 01:52:00,30.0,22.0,-100.00,West,260,6.0,13.0,73,0.00,,,0.00,0.000000,,2013-02-25 06:52:00,
2013-02-25 02:01:00,30.0,22.0,-100.00,West,260,6.0,13.0,73,0.00,,,0.00,0.000000,,2013-02-25 07:01:00,
2013-02-25 02:11:00,30.0,22.0,-100.00,West,260,6.0,13.0,73,0.00,,,0.00,0.000000,,2013-02-25 07:11:00,
2013-02-25 02:21:00,30.0,22.0,-100.00,West,260,6.0,13.0,73,0.00,,,0.00,0.000000,,2013-02-25 07:21:00,
2013-02-25 02:52:00,29.0,22.0,-100.00,WSW,241,6.0,9.0,74,0.00,,,0.00,0.000000,,2013-02-25 07:52:00,
2013-02-25 03:01:00,29.0,22.0,-100.00,WSW,241,6.0,9.0,74,0.00,,,0.00,0.000000,,2013-02-25 08:01:00,
2013-02-25 03:11:00,29.0,22.0,-100.00,WSW,241,6.0,9.0,74,0.00,,,0.00,0.000000,,2013-02-25 08:11:00,
2013-02-25 03:22:00,29.0,22.0,-100.00,WSW,241,6.0,9.0,74,0.00,,,0.00,0.000000,,2013-02-25 08:22:00,
2013-02-25 03:52:00,29.0,22.0,-100.00,WSW,247,5.0,8.0,76,0.00,,,0.00,0.000000,,2013-02-25 08:52:00,
2013-02-25 04:02:00,29.0,22.0,-100.00,WSW,247,5.0,8.0,76,0.00,,,0.00,0.000000,,2013-02-25 09:02:00,
2013-02-25 04:12:00,29.0,22.0,-100.00,WSW,247,5.0,8.0,76,0.00,,,0.00,0.000000,,2013-02-25 09:12:00,
2013-02-25 04:21:00,29.0,22.0,-100.00,WSW,247,5.0,8.0,76,0.00,,,0.00,0.000000,,2013-02-25 09:21:00,
2013-02-25 04:52:00,29.0,23.0,-100.00,WSW,243,4.0,7.0,77,0.00,,,0.00,0.000000,,2013-02-25 09:52:00,
2013-02-25 05:01:00,29.0,23.0,-100.00,WSW,243,4.0,7.0,77,0.00,,,0.00,0.000000,,2013-02-25 10:01:00,
2013-02-25 05:11:00,29.0,23.0,-100.00,WSW,243,4.0,7.0,77,0.00,,,0.00,0.000000,,2013-02-25 10:11:00,
2013-02-25 05:21:00,29.0,23.0,-100.00,WSW,243,4.0,7.0,77,0.00,,,0.00,0.000000,,2013-02-25 10:21:00,
2013-02-25 05:52:00,29.0,23.0,-100.00,SW,231,3.0,6.0,78,0.00,,,0.00,0.000000,,2013-02-25 10:52:00,
2013-02-25 06:01:00,29.0,23.0,-100.00,SW,231,3.0,6.0,78,0.00,,,0.00,0.000000,,2013-02-25 11:01:00,
2013-02-25 06:11:00,29.0,23.0,-100.00,SW,231,3.0,6.0,78,0.00,,,0.00,0.000000,,2013-02-25 11:11:00,
2013-02-25 06:22:00,29.0,23.0,-100.00,SW,231,3.0,6.0,78,0.00,,,0.00,0.000000,,2013-02-25 11:22:00,
2013-02-25 06:52:00,30.0,24.0,-100.00,SW,231,3.0,6.0,78,0.00,,,0.00,0.000000,,2013-02-25 11:52:00,
2013-02-25 07:02:00,30.0,24.0,-100.00,SW,231,3.0,6.0,78,0.00,,,0.00,0.000000,,2013-02-25 12:02:00,
2013-02-25 07:11:00,30.0,24.0,-100.00,SW,231,3.0,6.0,78,0.00,,,0.00,0.000000,,2013-02-25 12:11:00,
2013-02-25 07:21:00,30.0,24.0,-100.00,SW,231,3.0,6.0,78,0.00,,,0.00,0.000000,,2013-02-25 12:21:00,
2013-02-25 07:56:00,30.0,24.0,-100.00,WSW,248,4.0,7.0,79,0.00,,,0.00,2.000000,,2013-02-25 12:56:00,
2013-02-25 08:02:00,30.0,24.0,-100.00,WSW,248,4.0,7.0,79,0.00,,,0.00,2.000000,,2013-02-25 13:02:00,
2013-02-25 08:12:00,30.0,24.0,-100.00,WSW,248,4.0,7.0,79,0.00,,,0.00,2.000000,,2013-02-25 13:12:00,
2013-02-25 08:22:00,30.0,24.0,-100.00,WSW,248,4.0,7.0,79,0.00,,,0.00,2.000000,,2013-02-25 13:22:00,
2013-02-25 08:52:00,30.0,24.0,-100.00,SW,232,5.0,9.0,78,0.00,,,0.00,26.000000,,2013-02-25 13:52:00,
2013-02-25 09:04:00,30.0,24.0,-100.00,SW,232,5.0,9.0,78,0.00,,,0.00,26.000000,,2013-02-25 14:04:00,
2013-02-25 09:18:00,30.0,24.0,-100.00,SW,232,5.0,9.0,78,0.00,,,0.00,26.000000,,2013-02-25 14:18:00,
2013-02-25 09:52:00,32.0,25.0,-100.00,WSW,247,6.0,10.0,76,0.00,,,0.00,95.000000,,2013-02-25 14:52:00,
2013-02-25 10:03:00,32.0,25.0,-100.00,WSW,247,6.0,10.0,76,0.00,,,0.00,95.000000,,2013-02-25 15:03:00,
2013-02-25 10:11:00,32.0,25.0,-100.00,WSW,247,6.0,10.0,76,0.00,,,0.00,95.000000,,2013-02-25 15:11:00,
2013-02-25 10:22:00,32.0,25.0,-100.00,WSW,247,6.0,10.0,76,0.00,,,0.00,95.000000,,2013-02-25 15:22:00,
2013-02-25 10:52:00,33.0,26.0,-100.00,WSW,244,7.0,12.0,75,0.00,,,0.00,149.000000,,2013-02-25 15:52:00,
2013-02-25 11:02:00,33.0,26.0,-100.00,WSW,244,7.0,12.0,75,0.00,,,0.00,149.000000,,2013-02-25 16:02:00,
2013-02-25 11:12:00,33.0,26.0,-100.00,WSW,244,7.0,12.0,75,0.00,,,0.00,149.000000,,2013-02-25 16:12:00,
2013-02-25 11:22:00,33.0,26.0,-100.00,WSW,244,7.0,12.0,75,0.00,,,0.00,149.000000,,2013-02-25 16:22:00,
2013-02-25 11:52:00,33.0,26.0,-100.00,WSW,243,7.0,11.0,74,0.00,,,0.00,186.000000,,2013-02-25 16:52:00,
2013-02-25 12:02:00,33.0,26.0,-100.00,WSW,243,7.0,11.0,74,0.00,,,0.00,186.000000,,2013-02-25 17:02:00,
2013-02-25 12:11:00,33.0,26.0,-100.00,WSW,243,7.0,11.0,74,0.00,,,0.00,186.000000,,2013-02-25 17:11:00,
2013-02-25 12:22:00,33.0,26.0,-100.00,WSW,243,7.0,11.0,74,0.00,,,0.00,186.000000,,2013-02-25 17:22:00,
2013-02-25 12:52:00,34.0,26.0,-100.00,SW,223,4.0,11.0,73,0.00,,,0.00,188.000000,,2013-02-25 17:52:00,
2013-02-25 13:02:00,34.0,26.0,-100.00,SW,223,4.0,11.0,73,0.00,,,0.00,188.000000,,2013-02-25 18:02:00,
2013-02-25 13:12:00,34.0,26.0,-100.00,SW,223,4.0,11.0,73,0.00,,,0.00,188.000000,,2013-02-25 18:12:00,
2013-02-25 13:21:00,34.0,26.0,-100.00,SW,223,4.0,11.0,73,0.00,,,0.00,188.000000,,2013-02-25 18:21:00,
2013-02-25 13:52:00,34.0,27.0,-100.00,WSW,246,6.0,12.0,74,0.00,,,0.00,174.000000,,2013-02-25 18:52:00,
2013-02-25 14:02:00,34.0,27.0,-100.00,WSW,246,6.0,12.0,74,0.00,,,0.00,174.000000,,2013-02-25 19:02:00,
2013-02-25 14:11:00,34.0,27.0,-100.00,WSW,246,6.0,12.0,74,0.00,,,0.00,174.000000,,2013-02-25 19:11:00,
2013-02-25 14:22:00,34.0,27.0,-100.00,WSW,246,6.0,12.0,74,0.00,,,0.00,174.000000,,2013-02-25 19:22:00,
2013-02-25 14:52:00,34.0,27.0,-100.00,West,268,5.0,10.0,75,0.00,,,0.00,125.000000,,2013-02-25 19:52:00,
2013-02-25 15:01:00,34.0,27.0,-100.00,West,268,5.0,10.0,75,0.00,,,0.00,125.000000,,2013-02-25 20:01:00,
2013-02-25 15:11:00,34.0,27.0,-100.00,West,268,5.0,10.0,75,0.00,,,0.00,125.000000,,2013-02-25 20:11:00,
2013-02-25 15:22:00,34.0,27.0,-100.00,West,268,5.0,10.0,75,0.00,,,0.00,125.000000,,2013-02-25 20:22:00,
2013-02-25 15:52:00,34.0,25.0,-100.00,West,262,6.0,9.0,68,0.00,,,0.00,137.000000,,2013-02-25 20:52:00,
2013-02-25 16:02:00,34.0,25.0,-100.00,West,262,6.0,9.0,68,0.00,,,0.00,137.000000,,2013-02-25 21:02:00,
2013-02-25 16:11:00,34.0,25.0,-100.00,West,262,6.0,9.0,68,0.00,,,0.00,137.000000,,2013-02-25 21:11:00,
2013-02-25 16:21:00,34.0,25.0,-100.00,West,262,6.0,9.0,68,0.00,,,0.00,137.000000,,2013-02-25 21:21:00,
2013-02-25 16:52:00,35.0,25.0,-100.00,West,269,3.0,7.0,66,0.00,,,0.00,103.000000,,2013-02-25 21:52:00,
2013-02-25 17:02:00,35.0,25.0,-100.00,West,269,3.0,7.0,66,0.00,,,0.00,103.000000,,2013-02-25 22:02:00,
2013-02-25 17:11:00,35.0,25.0,-100.00,West,269,3.0,7.0,66,0.00,,,0.00,103.000000,,2013-02-25 22:11:00,
2013-02-25 17:21:00,35.0,25.0,-100.00,West,269,3.0,7.0,66,0.00,,,0.00,103.000000,,2013-02-25 22:21:00,
2013-02-25 17:52:00,34.0,26.0,-100.00,SSW,208,2.0,6.0,71,0.00,,,0.00,48.000000,,2013-02-25 22:52:00,
2013-02-25 18:01:00,34.0,26.0,-100.00,SSW,208,2.0,6.0,71,0.00,,,0.00,48.000000,,2013-02-25 23:01:00,
2013-02-25 18:11:00,34.0,26.0,-100.00,SSW,208,2.0,6.0,71,0.00,,,0.00,48.000000,,2013-02-25 23:11:00,
2013-02-25 18:22:00,34.0,26.0,-100.00,SSW,208,2.0,6.0,71,0.00,,,0.00,48.000000,,2013-02-25 23:22:00,
2013-02-25 18:52:00,32.0,25.0,-100.00,SW,233,0.0,4.0,75,0.00,,,0.00,5.000000,,2013-02-25 23:52:00,
2013-02-25 19:02:00,32.0,25.0,-100.00,SW,233,0.0,4.0,75,0.00,,,0.00,5.000000,,2013-02-26 00:02:00,
2013-02-25 19:12:00,32.0,25.0,-100.00,SW,233,0.0,4.0,75,0.00,,,0.00,5.000000,,2013-02-26 00:12:00,
2013-02-25 19:22:00,32.0,25.0,-100.00,SW,233,0.0,4.0,75,0.00,,,0.00,5.000000,,2013-02-26 00:22:00,
2013-02-25 19:52:00,31.0,25.0,-100.00,ESE,108,1.0,2.0,79,0.00,,,0.00,0.000000,,2013-02-26 00:52:00,
2013-02-25 20:02:00,31.0,25.0,-100.00,ESE,108,1.0,2.0,79,0.00,,,0.00,0.000000,,2013-02-26 01:02:00,
2013-02-25 20:11:00,31.0,25.0,-100.00,ESE,108,1.0,2.0,79,0.00,,,0.00,0.000000,,2013-02-26 01:11:00,
2013-02-25 20:21:00,31.0,25.0,-100.00,ESE,108,1.0,2.0,79,0.00,,,0.00,0.000000,,2013-02-26 01:21:00,
2013-02-25 20:52:00,30.0,25.0,-100.00,ESE,102,1.0,2.0,83,0.00,,,0.00,0.000000,,2013-02-26 01:52:00,
2013-02-25 21:01:00,30.0,25.0,-100.00,ESE,102,1.0,2.0,83,0.00,,,0.00,0.000000,,2013-02-26 02:01:00,
2013-02-25 21:11:00,30.0,25.0,-100.00,ESE,102,1.0,2.0,83,0.00,,,0.00,0.000000,,2013-02-26 02:11:00,
2013-02-25 21:21:00,30.0,25.0,-100.00,ESE,102,1.0,2.0,83,0.00,,,0.00,0.000000,,2013-02-26 02:21:00,
2013-02-25 21:52:00,30.0,26.0,-100.00,SE,144,0.0,2.0,85,0.00,,,0.00,0.000000,,2013-02-26 02:52:00,
2013-02-25 22:02:00,30.0,26.0,-100.00,SE,144,0.0,2.0,85,0.00,,,0.00,0.000000,,2013-02-26 03:02:00,
2013-02-25 22:12:00,30.0,26.0,-100.00,SE,144,0.0,2.0,85,0.00,,,0.00,0.000000,,2013-02-26 03:12:00,
2013-02-25 22:22:00,30.0,26.0,-100.00,SE,144,0.0,2.0,85,0.00,,,0.00,0.000000,,2013-02-26 03:22:00,
2013-02-25 22:52:00,29.0,26.0,-100.00,ESE,105,0.0,3.0,87,0.00,,,0.00,0.000000,,2013-02-26 03:52:00,
2013-02-25 23:02:00,29.0,26.0,-100.00,ESE,105,0.0,3.0,87,0.00,,,0.00,0.000000,,2013-02-26 04:02:00,
2013-02-25 23:11:00,29.0,26.0,-100.00,ESE,105,0.0,3.0,87,0.00,,,0.00,0.000000,,2013-02-26 04:11:00,
2013-02-25 23:22:00,29.0,26.0,-100.00,ESE,105,0.0,3.0,87,0.00,,,0.00,0.000000,,2013-02-26 04:22:00,
2013-02-25 23:52:00,27.0,24.0,-100.00,ENE,57,0.0,2.0,89,0.00,,,0.00,0.000000,,2013-02-26 04:52:00,